Time;durP1;ratioP1;P1;durP2;ratioP2;P2;SDS_P1;SDS_P2;PMS_P1;PMS_P2;Temp;Humidity;BMP_temperature;BMP_pressure;BME280_temperature;BME280_humidity;BME280_pressure;Samples;Min_cycle;Max_cycle;Signal;HPM_P1;HPM_P2
2022/05/20 00:00:50;;;;;;;;;;;29.00;45.80;;;;;;5119110;28;953;-43
2022/05/20 00:03:18;;;;;;;;;;;29.00;45.80;;;;;;5118866;28;1976;-39
2022/05/20 00:05:44;;;;;;;;;;;29.00;45.70;;;;;;5119112;28;1859;-44
2022/05/20 00:08:11;;;;;;;;;;;29.00;45.60;;;;;;5118475;28;956;-42
2022/05/20 00:10:38;;;;;;;;;;;29.00;45.50;;;;;;5118275;28;968;-44
2022/05/20 00:13:05;;;;;;;;;;;29.00;45.20;;;;;;5118073;28;936;-41
2022/05/20 00:15:32;;;;;;;;;;;29.10;45.30;;;;;;5118668;28;944;-44
2022/05/20 00:18:00;;;;;;;;;;;29.00;45.60;;;;;;5118896;28;976;-43
2022/05/20 00:20:28;;;;;;;;;;;29.00;45.70;;;;;;5118964;28;944;-40
2022/05/20 00:22:54;;;;;;;;;;;29.00;45.50;;;;;;5117740;28;1883;-42
2022/05/20 00:28:06;;;;;;;;;;;29.00;45.50;;;;;;5118344;28;916;-43
2022/05/20 00:30:33;;;;;;;;;;;29.00;45.60;;;;;;5118842;28;1015;-44
2022/05/20 00:33:01;;;;;;;;;;;29.00;45.50;;;;;;5118793;28;1012;-42
2022/05/20 00:35:28;;;;;;;;;;;29.00;45.60;;;;;;5117677;28;973;-44
2022/05/20 00:37:55;;;;;;;;;;;29.00;45.70;;;;;;5118753;28;1007;-44
2022/05/20 00:40:23;;;;;;;;;;;29.00;45.60;;;;;;5118770;28;983;-41
2022/05/20 00:42:50;;;;;;;;;;;29.00;45.50;;;;;;5118589;28;1921;-45
2022/05/20 00:45:18;;;;;;;;;;;29.00;45.50;;;;;;5118290;28;1015;-43
2022/05/20 00:47:45;;;;;;;;;;;29.10;45.40;;;;;;5118267;28;1023;-43
2022/05/20 00:50:15;;;;;;;;;;;29.00;45.20;;;;;;5118282;28;960;-41
2022/05/20 00:52:44;;;;;;;;;;;29.00;45.30;;;;;;5118307;28;1003;-44
2022/05/20 00:55:13;;;;;;;;;;;29.00;45.40;;;;;;5118724;28;889;-42
2022/05/20 00:57:43;;;;;;;;;;;29.00;45.50;;;;;;5118730;28;1023;-41
2022/05/20 01:00:12;;;;;;;;;;;29.00;45.50;;;;;;5118158;28;1054;-44
2022/05/20 01:02:39;;;;;;;;;;;29.00;45.50;;;;;;5118123;28;933;-44
2022/05/20 01:05:10;;;;;;;;;;;29.00;45.50;;;;;;5118592;28;1976;-42
2022/05/20 01:07:39;;;;;;;;;;;29.00;45.30;;;;;;5116896;28;1023;-42
2022/05/20 01:10:07;;;;;;;;;;;29.00;45.40;;;;;;5115474;28;996;-43
2022/05/20 01:12:34;;;;;;;;;;;29.00;45.40;;;;;;5116820;28;948;-42
2022/05/20 01:15:01;;;;;;;;;;;29.00;45.50;;;;;;5117315;28;999;-45
2022/05/20 01:17:28;;;;;;;;;;;29.00;45.50;;;;;;5118300;28;993;-42
2022/05/20 01:19:57;;;;;;;;;;;29.00;45.50;;;;;;5115217;28;1011;-43
2022/05/20 01:22:28;;;;;;;;;;;29.00;45.50;;;;;;5109395;28;1046;-43
2022/05/20 01:24:56;;;;;;;;;;;28.90;45.40;;;;;;5114416;28;1980;-44
2022/05/20 01:27:23;;;;;;;;;;;29.00;45.40;;;;;;5118003;28;982;-44
2022/05/20 01:29:49;;;;;;;;;;;29.00;45.30;;;;;;5118383;28;1020;-43
2022/05/20 01:32:16;;;;;;;;;;;29.00;45.10;;;;;;5118041;28;997;-44
2022/05/20 01:34:43;;;;;;;;;;;29.00;44.70;;;;;;5119583;28;1054;-42
2022/05/20 01:37:09;;;;;;;;;;;29.00;44.40;;;;;;5120889;28;1015;-43
2022/05/20 01:39:37;;;;;;;;;;;29.00;44.20;;;;;;5121357;28;959;-44
2022/05/20 01:42:07;;;;;;;;;;;29.00;44.20;;;;;;5121642;28;1008;-43
2022/05/20 01:44:36;;;;;;;;;;;29.00;45.30;;;;;;5121072;28;1905;-43
2022/05/20 01:47:04;;;;;;;;;;;28.90;44.10;;;;;;5121421;28;1058;-43
2022/05/20 01:49:35;;;;;;;;;;;29.00;44.10;;;;;;5121319;28;1007;-44
2022/05/20 01:52:07;;;;;;;;;;;29.00;44.10;;;;;;5121561;28;1072;-44
2022/05/20 01:54:37;;;;;;;;;;;29.00;43.70;;;;;;5121320;28;1019;-43
2022/05/20 01:57:08;;;;;;;;;;;29.00;43.70;;;;;;5121746;28;1030;-44
2022/05/20 01:59:38;;;;;;;;;;;29.00;43.70;;;;;;5121489;28;1014;-41
2022/05/20 02:02:06;;;;;;;;;;;28.90;43.70;;;;;;5121544;28;994;-43
2022/05/20 02:04:35;;;;;;;;;;;28.90;43.60;;;;;;5121665;28;1984;-43
2022/05/20 02:07:04;;;;;;;;;;;28.90;43.60;;;;;;5121521;28;1001;-44
2022/05/20 02:09:32;;;;;;;;;;;28.90;43.50;;;;;;5120469;28;1004;-44
2022/05/20 02:11:59;;;;;;;;;;;28.90;43.60;;;;;;5120093;28;944;-44
2022/05/20 02:14:28;;;;;;;;;;;28.80;43.50;;;;;;5121614;28;1031;-44
2022/05/20 02:16:58;;;;;;;;;;;28.90;43.60;;;;;;5120827;28;1035;-42
2022/05/20 02:19:29;;;;;;;;;;;28.90;43.40;;;;;;5121240;28;940;-43
2022/05/20 02:21:57;;;;;;;;;;;28.90;43.40;;;;;;5120630;28;1011;-42
2022/05/20 02:24:26;;;;;;;;;;;28.90;43.40;;;;;;5120656;28;1905;-43
2022/05/20 02:26:56;;;;;;;;;;;28.90;43.30;;;;;;5120443;28;1017;-42
2022/05/20 02:29:24;;;;;;;;;;;28.90;43.30;;;;;;5120733;28;1000;-43
2022/05/20 02:31:54;;;;;;;;;;;28.90;43.30;;;;;;5120306;28;1018;-43
2022/05/20 02:34:21;;;;;;;;;;;29.00;43.40;;;;;;5120180;28;952;-44
2022/05/20 02:36:48;;;;;;;;;;;28.90;43.50;;;;;;5119694;28;976;-42
2022/05/20 02:39:18;;;;;;;;;;;28.90;43.30;;;;;;5121316;28;1023;-43
2022/05/20 02:41:45;;;;;;;;;;;28.90;43.30;;;;;;5119734;28;929;-44
2022/05/20 02:44:12;;;;;;;;;;;28.90;43.30;;;;;;5119896;28;1906;-43
2022/05/20 02:46:39;;;;;;;;;;;28.90;43.40;;;;;;5118312;28;1026;-44
2022/05/20 02:49:07;;;;;;;;;;;28.80;43.30;;;;;;5118378;28;977;-40
2022/05/20 02:51:34;;;;;;;;;;;28.80;43.30;;;;;;5119356;28;924;-44
2022/05/20 02:54:02;;;;;;;;;;;28.80;43.40;;;;;;5119527;28;1059;-44
2022/05/20 02:56:28;;;;;;;;;;;28.80;43.30;;;;;;5119688;28;1011;-44
2022/05/20 03:04:25;;;;;;;;;;;28.90;43.20;;;;;;5119558;28;1925;-43
2022/05/20 03:06:52;;;;;;;;;;;28.80;43.10;;;;;;5119008;28;1029;-41
2022/05/20 03:09:20;;;;;;;;;;;28.80;43.30;;;;;;5119752;28;873;-43
2022/05/20 03:11:47;;;;;;;;;;;28.80;43.20;;;;;;5118182;28;1097;-44
2022/05/20 03:14:15;;;;;;;;;;;28.80;43.20;;;;;;5120468;28;1032;-43
2022/05/20 03:16:42;;;;;;;;;;;28.80;43.30;;;;;;5119640;28;1011;-42
2022/05/20 03:19:09;;;;;;;;;;;28.80;43.30;;;;;;5120154;28;1011;-43
2022/05/20 03:21:38;;;;;;;;;;;28.80;43.10;;;;;;5119826;28;928;-44
2022/05/20 03:24:05;;;;;;;;;;;28.80;43.30;;;;;;5119370;28;1901;-44
2022/05/20 03:26:32;;;;;;;;;;;28.70;43.20;;;;;;5119395;28;892;-43
2022/05/20 03:28:59;;;;;;;;;;;28.80;43.20;;;;;;5118784;28;1000;-43
2022/05/20 03:31:26;;;;;;;;;;;28.80;43.20;;;;;;5118230;28;980;-44
2022/05/20 03:33:53;;;;;;;;;;;28.80;44.30;;;;;;5118910;28;965;-43
2022/05/20 03:36:21;;;;;;;;;;;28.90;43.10;;;;;;5118844;28;983;-44
2022/05/20 03:38:49;;;;;;;;;;;28.90;43.10;;;;;;5119818;28;992;-42
2022/05/20 03:41:16;;;;;;;;;;;28.90;43.10;;;;;;5117888;28;1014;-44
2022/05/20 03:43:42;;;;;;;;;;;28.90;43.10;;;;;;5119156;28;1897;-44
2022/05/20 03:46:09;;;;;;;;;;;29.00;43.10;;;;;;5118827;28;964;-43
2022/05/20 03:48:36;;;;;;;;;;;28.90;43.00;;;;;;5118866;28;978;-43
2022/05/20 03:51:07;;;;;;;;;;;29.00;43.00;;;;;;5118106;28;960;-45
2022/05/20 03:53:34;;;;;;;;;;;28.90;43.10;;;;;;5118366;28;987;-45
2022/05/20 03:56:02;;;;;;;;;;;28.90;43.00;;;;;;5117401;28;981;-45
2022/05/20 03:58:29;;;;;;;;;;;29.00;43.00;;;;;;5118711;28;1134;-44
2022/05/20 04:03:41;;;;;;;;;;;28.90;43.10;;;;;;5118520;28;1897;-43
2022/05/20 04:06:08;;;;;;;;;;;28.90;43.00;;;;;;5118421;28;1051;-44
2022/05/20 04:08:35;;;;;;;;;;;28.90;43.00;;;;;;5117864;28;995;-44
2022/05/20 04:11:03;;;;;;;;;;;28.90;43.10;;;;;;5118106;28;1023;-45
2022/05/20 04:13:30;;;;;;;;;;;28.90;43.10;;;;;;5118094;28;1095;-41
2022/05/20 04:15:56;;;;;;;;;;;28.90;43.10;;;;;;5117957;28;977;-45
2022/05/20 04:18:23;;;;;;;;;;;28.90;43.10;;;;;;5118105;28;1019;-41
2022/05/20 04:20:50;;;;;;;;;;;28.90;43.30;;;;;;5117815;28;1814;-47
2022/05/20 04:23:20;;;;;;;;;;;28.90;43.20;;;;;;5117783;28;1003;-45
2022/05/20 04:25:47;;;;;;;;;;;28.90;43.30;;;;;;5117781;28;1902;-41
2022/05/20 04:28:15;;;;;;;;;;;28.90;43.20;;;;;;5118451;28;902;-43
2022/05/20 04:30:42;;;;;;;;;;;28.80;43.10;;;;;;5116326;28;968;-44
2022/05/20 04:33:10;;;;;;;;;;;28.90;43.10;;;;;;5117356;28;999;-43
2022/05/20 04:35:36;;;;;;;;;;;28.90;43.10;;;;;;5118038;28;970;-43
2022/05/20 04:38:03;;;;;;;;;;;28.80;43.10;;;;;;5117883;28;1001;-44
2022/05/20 04:40:30;;;;;;;;;;;28.80;43.20;;;;;;5117290;28;1903;-43
2022/05/20 04:48:26;;;;;;;;;;;28.80;43.10;;;;;;5116730;28;891;-42
2022/05/20 04:50:53;;;;;;;;;;;28.90;43.10;;;;;;5116036;28;964;-43
2022/05/20 04:56:00;;;;;;;;;;;28.80;43.00;;;;;;5116217;28;792;-44
2022/05/20 04:58:27;;;;;;;;;;;28.80;43.00;;;;;;5110932;28;1129;-42
2022/05/20 05:00:56;;;;;;;;;;;28.80;43.10;;;;;;5111579;28;972;-41
2022/05/20 05:03:23;;;;;;;;;;;28.80;43.00;;;;;;5116511;28;992;-42
2022/05/20 05:05:50;;;;;;;;;;;28.90;43.10;;;;;;5115335;28;1938;-43
2022/05/20 05:08:17;;;;;;;;;;;28.80;43.00;;;;;;5115248;28;985;-43
2022/05/20 05:10:45;;;;;;;;;;;28.80;43.10;;;;;;5116885;28;1018;-42
2022/05/20 05:13:12;;;;;;;;;;;28.80;43.20;;;;;;5118566;28;941;-45
2022/05/20 05:15:39;;;;;;;;;;;28.70;43.20;;;;;;5118227;28;2046;-44
2022/05/20 05:18:12;;;;;;;;;;;28.70;43.20;;;;;;5119194;28;945;-42
2022/05/20 05:20:41;;;;;;;;;;;28.80;43.30;;;;;;5118538;28;953;-44
2022/05/20 05:23:08;;;;;;;;;;;28.70;43.20;;;;;;5117919;28;880;-45
2022/05/20 05:25:35;;;;;;;;;;;28.80;43.20;;;;;;5116556;28;1980;-43
2022/05/20 05:28:02;;;;;;;;;;;28.80;43.20;;;;;;5117762;28;967;-42
2022/05/20 05:30:29;;;;;;;;;;;28.80;43.30;;;;;;5118125;28;968;-44
2022/05/20 05:32:56;;;;;;;;;;;28.70;43.20;;;;;;5119181;28;1000;-45
2022/05/20 05:35:25;;;;;;;;;;;28.70;43.10;;;;;;5118424;28;928;-44
2022/05/20 05:37:52;;;;;;;;;;;28.70;43.30;;;;;;5116991;28;928;-44
2022/05/20 05:40:20;;;;;;;;;;;28.60;43.20;;;;;;5117140;28;948;-44
2022/05/20 05:42:47;;;;;;;;;;;28.60;43.30;;;;;;5118073;28;928;-44
2022/05/20 05:45:15;;;;;;;;;;;28.60;43.20;;;;;;5117917;28;1984;-44
2022/05/20 05:47:42;;;;;;;;;;;28.60;43.10;;;;;;5119132;28;1011;-44
2022/05/20 05:50:09;;;;;;;;;;;28.70;43.10;;;;;;5119053;28;1119;-44
2022/05/20 05:52:38;;;;;;;;;;;28.60;43.10;;;;;;5119613;28;958;-43
2022/05/20 05:55:05;;;;;;;;;;;28.60;43.10;;;;;;5118395;28;939;-43
2022/05/20 05:57:32;;;;;;;;;;;28.60;43.10;;;;;;5119197;28;1172;-44
2022/05/20 05:59:58;;;;;;;;;;;28.60;43.10;;;;;;5118453;28;1090;-41
2022/05/20 06:02:25;;;;;;;;;;;28.60;43.10;;;;;;5118530;28;1005;-45
2022/05/20 06:04:52;;;;;;;;;;;28.70;43.10;;;;;;5119261;28;1906;-39
2022/05/20 06:07:19;;;;;;;;;;;28.70;43.10;;;;;;5118622;28;952;-43
2022/05/20 06:09:48;;;;;;;;;;;28.70;43.20;;;;;;5118991;28;924;-41
2022/05/20 06:12:15;;;;;;;;;;;28.80;43.20;;;;;;5118705;28;1016;-41
2022/05/20 06:14:42;;;;;;;;;;;28.70;43.10;;;;;;5118655;28;1051;-41
2022/05/20 06:17:11;;;;;;;;;;;28.70;43.50;;;;;;5119271;28;1003;-42
2022/05/20 06:19:38;;;;;;;;;;;28.80;43.50;;;;;;5118625;28;1729;-45
2022/05/20 06:22:05;;;;;;;;;;;28.80;43.50;;;;;;5116403;28;984;-45
2022/05/20 06:24:32;;;;;;;;;;;28.80;43.40;;;;;;5118119;28;1980;-46
2022/05/20 06:27:00;;;;;;;;;;;28.80;43.50;;;;;;5117839;28;897;-39
2022/05/20 06:29:26;;;;;;;;;;;28.80;44.50;;;;;;5117904;28;929;-39
2022/05/20 06:31:53;;;;;;;;;;;28.80;43.30;;;;;;5115662;28;1468;-48
2022/05/20 06:34:20;;;;;;;;;;;28.90;43.30;;;;;;5119285;28;972;-45
2022/05/20 06:42:13;;;;;;;;;;;28.90;43.30;;;;;;5117767;28;1565;-41
2022/05/20 06:44:40;;;;;;;;;;;28.90;43.60;;;;;;5122356;28;1961;-41
2022/05/20 06:47:06;;;;;;;;;;;28.90;43.60;;;;;;5118621;28;1039;-41
2022/05/20 06:49:33;;;;;;;;;;;29.00;43.70;;;;;;5101548;28;940;-43
2022/05/20 06:52:00;;;;;;;;;;;29.00;43.90;;;;;;5086121;28;900;-44
2022/05/20 06:54:27;;;;;;;;;;;29.00;43.80;;;;;;5117323;28;945;-45
2022/05/20 06:56:55;;;;;;;;;;;28.90;44.00;;;;;;5116487;28;980;-45
2022/05/20 06:59:24;;;;;;;;;;;28.90;43.90;;;;;;5118039;28;1093;-43
2022/05/20 07:01:52;;;;;;;;;;;28.90;43.90;;;;;;5117084;28;1020;-45
2022/05/20 07:04:19;;;;;;;;;;;28.90;43.90;;;;;;5117347;28;992;-45
2022/05/20 07:06:46;;;;;;;;;;;28.90;44.00;;;;;;5116821;28;1982;-45
2022/05/20 07:09:12;;;;;;;;;;;28.80;43.90;;;;;;5117477;28;972;-45
2022/05/20 07:11:39;;;;;;;;;;;28.90;44.00;;;;;;5116002;28;2217;-45
2022/05/20 07:14:06;;;;;;;;;;;28.90;44.00;;;;;;5118447;28;988;-45
2022/05/20 07:16:36;;;;;;;;;;;28.90;43.80;;;;;;5118137;28;930;-45
2022/05/20 07:19:03;;;;;;;;;;;28.90;43.80;;;;;;5116909;28;1764;-46
2022/05/20 07:21:30;;;;;;;;;;;28.90;43.90;;;;;;5116474;28;1963;-45
2022/05/20 07:23:56;;;;;;;;;;;28.90;43.80;;;;;;5117479;28;1859;-46
2022/05/20 07:26:23;;;;;;;;;;;28.90;43.80;;;;;;5117097;28;1909;-45
2022/05/20 07:28:50;;;;;;;;;;;29.00;43.70;;;;;;5115488;28;976;-45
2022/05/20 07:31:17;;;;;;;;;;;28.90;43.80;;;;;;5116500;28;1396;-46
2022/05/20 07:33:45;;;;;;;;;;;29.00;43.80;;;;;;5115019;28;1003;-45
2022/05/20 07:36:12;;;;;;;;;;;29.00;43.80;;;;;;5116140;28;972;-45
2022/05/20 07:38:39;;;;;;;;;;;29.00;43.70;;;;;;5116220;28;992;-44
2022/05/20 07:41:06;;;;;;;;;;;29.00;43.80;;;;;;5117193;28;862;-44
2022/05/20 07:43:33;;;;;;;;;;;28.90;43.80;;;;;;5115507;28;1020;-45
2022/05/20 07:46:00;;;;;;;;;;;28.90;43.80;;;;;;5116147;28;1975;-45
2022/05/20 07:48:26;;;;;;;;;;;28.90;43.80;;;;;;5117112;28;979;-44
2022/05/20 07:50:57;;;;;;;;;;;29.00;43.90;;;;;;5115651;28;874;-44
2022/05/20 07:53:33;;;;;;;;;;;29.00;43.90;;;;;;5115539;28;1466;-44
2022/05/20 07:56:02;;;;;;;;;;;29.00;43.80;;;;;;5117490;28;937;-44
2022/05/20 07:58:30;;;;;;;;;;;29.00;43.80;;;;;;5116976;28;1062;-45
2022/05/20 08:00:58;;;;;;;;;;;29.00;43.80;;;;;;5116546;28;1028;-43
2022/05/20 08:06:12;;;;;;;;;;;29.00;43.80;;;;;;5115583;28;1910;-45
2022/05/20 08:08:39;;;;;;;;;;;29.00;43.90;;;;;;5116448;28;1024;-44
2022/05/20 08:11:06;;;;;;;;;;;29.00;43.80;;;;;;5116174;28;1036;-45
2022/05/20 08:13:33;;;;;;;;;;;29.00;43.90;;;;;;5116795;28;1020;-43
2022/05/20 08:15:59;;;;;;;;;;;29.00;43.80;;;;;;5116442;28;916;-45
2022/05/20 08:18:26;;;;;;;;;;;29.00;43.80;;;;;;5116494;28;1019;-45
2022/05/20 08:20:55;;;;;;;;;;;29.00;43.90;;;;;;5112957;28;1584;-45
2022/05/20 08:23:23;;;;;;;;;;;29.00;44.40;;;;;;5117233;28;1012;-43
2022/05/20 08:25:50;;;;;;;;;;;29.00;43.80;;;;;;5116455;28;1914;-44
2022/05/20 08:28:17;;;;;;;;;;;29.00;43.80;;;;;;5115342;28;1010;-42
2022/05/20 08:30:44;;;;;;;;;;;29.00;43.70;;;;;;5115925;28;817;-45
2022/05/20 08:33:11;;;;;;;;;;;29.00;43.90;;;;;;5115311;28;968;-45
2022/05/20 08:35:38;;;;;;;;;;;29.00;43.70;;;;;;5114743;28;940;-45
2022/05/20 08:38:05;;;;;;;;;;;29.10;43.90;;;;;;5107136;28;945;-44
2022/05/20 08:40:37;;;;;;;;;;;29.00;43.80;;;;;;5094530;28;884;-45
2022/05/20 08:43:04;;;;;;;;;;;29.00;43.80;;;;;;5105020;28;954;-44
2022/05/20 08:45:32;;;;;;;;;;;29.00;43.80;;;;;;5118567;28;1902;-45
2022/05/20 08:47:58;;;;;;;;;;;29.00;43.90;;;;;;5120257;28;1038;-44
2022/05/20 08:50:26;;;;;;;;;;;29.00;43.90;;;;;;5120020;28;996;-45
2022/05/20 08:52:55;;;;;;;;;;;29.10;43.90;;;;;;5119484;28;959;-45
2022/05/20 08:55:22;;;;;;;;;;;29.00;43.80;;;;;;5119389;28;1008;-44
2022/05/20 08:57:52;;;;;;;;;;;29.10;43.90;;;;;;5119329;28;1015;-45
2022/05/20 09:00:20;;;;;;;;;;;29.10;43.80;;;;;;5118443;28;1109;-45
2022/05/20 09:02:47;;;;;;;;;;;29.10;43.90;;;;;;5118879;28;979;-43
2022/05/20 09:05:15;;;;;;;;;;;29.10;43.90;;;;;;5118988;28;1987;-44
2022/05/20 09:07:54;;;;;;;;;;;29.10;44.00;;;;;;5118092;28;1014;-45
2022/05/20 09:10:28;;;;;;;;;;;29.10;43.90;;;;;;5117119;28;943;-45
2022/05/20 09:13:05;;;;;;;;;;;29.10;43.90;;;;;;5117522;28;975;-45
2022/05/20 09:15:46;;;;;;;;;;;29.10;43.90;;;;;;5116703;28;896;-44
2022/05/20 09:18:17;;;;;;;;;;;29.10;43.90;;;;;;5118263;28;916;-45
2022/05/20 09:20:45;;;;;;;;;;;29.10;43.80;;;;;;5117981;28;995;-45
2022/05/20 09:23:15;;;;;;;;;;;29.10;43.80;;;;;;5112938;28;1599;-44
2022/05/20 09:25:50;;;;;;;;;;;29.10;43.80;;;;;;5115494;28;1914;-45
2022/05/20 09:28:23;;;;;;;;;;;29.10;43.90;;;;;;5119181;28;1153;-45
2022/05/20 09:30:52;;;;;;;;;;;29.10;43.90;;;;;;5119071;28;979;-45
2022/05/20 09:33:21;;;;;;;;;;;29.10;43.90;;;;;;5119078;28;971;-45
2022/05/20 09:35:52;;;;;;;;;;;29.10;43.90;;;;;;5118936;28;980;-45
2022/05/20 09:38:33;;;;;;;;;;;29.10;45.00;;;;;;5118116;28;1381;-45
2022/05/20 09:41:09;;;;;;;;;;;29.10;43.80;;;;;;5117496;28;1632;-45
2022/05/20 09:43:39;;;;;;;;;;;29.20;43.90;;;;;;5117359;28;1004;-45
2022/05/20 09:46:11;;;;;;;;;;;29.10;43.80;;;;;;5116653;28;1894;-45
2022/05/20 09:48:44;;;;;;;;;;;29.20;43.80;;;;;;5116407;28;1023;-45
2022/05/20 09:51:13;;;;;;;;;;;29.20;43.80;;;;;;5113145;28;1027;-45
2022/05/20 09:53:41;;;;;;;;;;;29.20;43.80;;;;;;5117224;28;1892;-45
2022/05/20 09:56:23;;;;;;;;;;;29.20;45.00;;;;;;5115123;28;929;-45
2022/05/20 09:59:09;;;;;;;;;;;29.20;43.80;;;;;;5113221;28;1023;-45
2022/05/20 10:01:37;;;;;;;;;;;29.20;43.80;;;;;;5116532;28;965;-45
2022/05/20 10:04:06;;;;;;;;;;;29.20;43.80;;;;;;5117094;28;1245;-45
2022/05/20 10:06:35;;;;;;;;;;;29.20;43.80;;;;;;5117082;28;1979;-45
2022/05/20 10:09:06;;;;;;;;;;;29.20;43.70;;;;;;5117134;28;948;-45
2022/05/20 10:11:37;;;;;;;;;;;29.20;43.60;;;;;;5116993;28;980;-45
2022/05/20 10:14:08;;;;;;;;;;;29.20;43.80;;;;;;5116313;28;1011;-46
2022/05/20 10:16:41;;;;;;;;;;;29.20;43.70;;;;;;5117246;28;968;-45
2022/05/20 10:19:11;;;;;;;;;;;29.20;43.60;;;;;;5117635;28;1051;-43
2022/05/20 10:21:44;;;;;;;;;;;29.30;43.70;;;;;;5117784;28;1043;-45
2022/05/20 10:24:18;;;;;;;;;;;29.30;43.70;;;;;;5118023;28;1027;-45
2022/05/20 10:26:50;;;;;;;;;;;29.30;43.70;;;;;;5116803;28;1901;-45
2022/05/20 10:34:53;;;;;;;;;;;29.30;43.70;;;;;;5117135;28;613;-45
2022/05/20 10:37:23;;;;;;;;;;;29.30;43.70;;;;;;5115476;28;1024;-45
2022/05/20 10:40:17;;;;;;;;;;;29.30;43.70;;;;;;5116526;28;1066;-45
2022/05/20 10:42:57;;;;;;;;;;;29.30;43.70;;;;;;5068471;28;1451;-45
2022/05/20 10:48:35;;;;;;;;;;;29.30;43.70;;;;;;5114720;28;875;-47
2022/05/20 10:51:09;;;;;;;;;;;29.30;43.60;;;;;;5116579;28;884;-47
2022/05/20 10:53:40;;;;;;;;;;;29.40;43.60;;;;;;5116702;28;1025;-46
2022/05/20 10:56:17;;;;;;;;;;;29.30;44.80;;;;;;5117112;28;917;-46
2022/05/20 10:58:51;;;;;;;;;;;29.40;43.70;;;;;;5116635;28;1208;-46
2022/05/20 11:01:26;;;;;;;;;;;29.30;43.60;;;;;;5116608;28;941;-46
2022/05/20 11:04:12;;;;;;;;;;;29.40;43.60;;;;;;5116902;28;1003;-46
2022/05/20 11:06:53;;;;;;;;;;;29.40;43.50;;;;;;5114773;28;1911;-46
2022/05/20 11:09:23;;;;;;;;;;;29.40;43.40;;;;;;5116280;28;996;-46
2022/05/20 11:11:56;;;;;;;;;;;29.40;43.40;;;;;;5115813;28;889;-46
2022/05/20 11:14:32;;;;;;;;;;;29.40;43.50;;;;;;5116131;28;996;-46
2022/05/20 11:17:13;;;;;;;;;;;29.40;43.50;;;;;;5116816;28;1017;-46
2022/05/20 11:19:56;;;;;;;;;;;29.50;43.40;;;;;;5117188;28;1015;-46
2022/05/20 11:22:33;;;;;;;;;;;29.50;43.40;;;;;;5117012;28;1020;-45
2022/05/20 11:25:11;;;;;;;;;;;29.50;43.40;;;;;;5116123;28;984;-45
2022/05/20 11:28:02;;;;;;;;;;;29.50;43.40;;;;;;5116158;28;1906;-46
2022/05/20 11:30:34;;;;;;;;;;;29.50;43.40;;;;;;5116899;28;949;-45
2022/05/20 11:33:09;;;;;;;;;;;29.50;43.50;;;;;;5113952;28;1003;-46
2022/05/20 11:35:43;;;;;;;;;;;29.40;43.40;;;;;;5118375;27;1243;-45
2022/05/20 11:38:25;;;;;;;;;;;29.50;43.50;;;;;;5116452;28;988;-45
2022/05/20 11:40:59;;;;;;;;;;;29.50;43.50;;;;;;5116269;28;980;-46
2022/05/20 11:43:50;;;;;;;;;;;29.50;43.50;;;;;;5115521;28;999;-45
2022/05/20 11:46:26;;;;;;;;;;;29.50;43.40;;;;;;5103233;28;1981;-46
2022/05/20 11:49:09;;;;;;;;;;;29.50;43.40;;;;;;5116394;28;1373;-45
2022/05/20 11:51:57;;;;;;;;;;;29.50;43.90;;;;;;5113370;28;1015;-45
2022/05/20 11:54:27;;;;;;;;;;;29.50;43.50;;;;;;5115554;28;967;-45
2022/05/20 11:56:55;;;;;;;;;;;29.50;43.40;;;;;;5116801;28;951;-45
2022/05/20 11:59:25;;;;;;;;;;;29.50;43.50;;;;;;5115665;28;1102;-46
2022/05/20 12:01:54;;;;;;;;;;;29.50;43.50;;;;;;5115170;28;888;-45
2022/05/20 12:04:24;;;;;;;;;;;29.50;43.40;;;;;;5116377;28;945;-46
2022/05/20 12:06:52;;;;;;;;;;;29.50;43.40;;;;;;5116567;28;1984;-45
2022/05/20 12:09:27;;;;;;;;;;;29.50;43.30;;;;;;5117023;28;1038;-46
2022/05/20 12:12:15;;;;;;;;;;;29.60;43.30;;;;;;5117302;28;1060;-45
2022/05/20 12:15:01;;;;;;;;;;;29.50;43.30;;;;;;5116981;28;924;-45
2022/05/20 12:17:31;;;;;;;;;;;29.50;43.40;;;;;;5117570;28;987;-46
2022/05/20 12:25:37;;;;;;;;;;;29.50;43.50;;;;;;5115835;28;696;-45
2022/05/20 12:28:05;;;;;;;;;;;29.50;43.50;;;;;;5116334;28;1976;-46
2022/05/20 12:30:38;;;;;;;;;;;29.50;43.50;;;;;;5116600;28;949;-46
2022/05/20 12:33:20;;;;;;;;;;;29.50;43.50;;;;;;5115900;28;909;-46
2022/05/20 12:36:16;;;;;;;;;;;29.40;43.50;;;;;;5115642;28;932;-45
2022/05/20 12:38:43;;;;;;;;;;;29.50;43.60;;;;;;5115442;28;921;-45
2022/05/20 12:41:17;;;;;;;;;;;29.50;43.50;;;;;;5115296;28;980;-45
2022/05/20 12:43:46;;;;;;;;;;;29.50;43.70;;;;;;5116415;28;909;-44
2022/05/20 12:46:17;;;;;;;;;;;29.40;43.60;;;;;;5114421;28;1035;-46
2022/05/20 12:48:44;;;;;;;;;;;29.50;43.70;;;;;;5115739;28;1967;-46
2022/05/20 12:51:12;;;;;;;;;;;29.50;44.80;;;;;;5115359;28;932;-46
2022/05/20 12:53:39;;;;;;;;;;;29.50;43.70;;;;;;5114755;28;940;-46
2022/05/20 12:56:06;;;;;;;;;;;29.50;43.70;;;;;;5115869;28;1054;-46
2022/05/20 12:58:34;;;;;;;;;;;29.50;43.70;;;;;;5115173;28;999;-46
2022/05/20 13:01:04;;;;;;;;;;;29.50;43.70;;;;;;5114991;28;945;-46
2022/05/20 13:03:33;;;;;;;;;;;29.50;43.60;;;;;;5110739;28;1947;-45
2022/05/20 13:06:02;;;;;;;;;;;29.50;43.60;;;;;;5094208;28;1015;-46
2022/05/20 13:08:32;;;;;;;;;;;29.50;43.60;;;;;;5093080;28;1984;-43
2022/05/20 13:11:06;;;;;;;;;;;29.50;43.70;;;;;;5095881;28;1019;-45
2022/05/20 13:13:33;;;;;;;;;;;29.50;43.70;;;;;;5094468;28;1005;-44
2022/05/20 13:16:01;;;;;;;;;;;29.40;43.60;;;;;;5094912;28;884;-44
2022/05/20 13:18:31;;;;;;;;;;;29.50;43.70;;;;;;5095435;28;1805;-43
2022/05/20 13:20:59;;;;;;;;;;;29.50;43.70;;;;;;5096065;28;984;-45
2022/05/20 13:23:29;;;;;;;;;;;29.50;43.70;;;;;;5095440;28;999;-43
2022/05/20 13:25:57;;;;;;;;;;;29.50;43.70;;;;;;5095697;28;988;-44
2022/05/20 13:28:24;;;;;;;;;;;29.50;43.70;;;;;;5095601;28;1906;-46
2022/05/20 13:30:52;;;;;;;;;;;29.50;43.60;;;;;;5097619;28;984;-44
2022/05/20 13:33:18;;;;;;;;;;;29.50;43.60;;;;;;5098212;28;1008;-45
2022/05/20 13:35:48;;;;;;;;;;;29.50;43.60;;;;;;5099201;28;1012;-45
2022/05/20 13:38:15;;;;;;;;;;;29.50;43.70;;;;;;5099264;28;1035;-45
2022/05/20 13:40:42;;;;;;;;;;;29.50;43.80;;;;;;5099825;28;1009;-45
2022/05/20 13:43:11;;;;;;;;;;;29.50;43.70;;;;;;5098039;28;1032;-45
2022/05/20 13:51:07;;;;;;;;;;;29.50;43.70;;;;;;5099272;28;975;-44
2022/05/20 13:53:34;;;;;;;;;;;29.50;43.60;;;;;;5099654;28;995;-45
2022/05/20 13:56:00;;;;;;;;;;;29.50;43.70;;;;;;5098920;28;936;-45
2022/05/20 13:58:29;;;;;;;;;;;29.60;43.70;;;;;;5099272;28;1094;-45
2022/05/20 14:01:02;;;;;;;;;;;29.50;43.60;;;;;;5098234;28;996;-44
2022/05/20 14:03:30;;;;;;;;;;;29.50;43.70;;;;;;5099287;28;918;-44
2022/05/20 14:05:59;;;;;;;;;;;29.50;43.70;;;;;;5098547;28;999;-45
2022/05/20 14:08:26;;;;;;;;;;;29.50;43.70;;;;;;5098000;28;1981;-55
2022/05/20 14:10:55;;;;;;;;;;;29.60;43.70;;;;;;5098974;28;985;-45
2022/05/20 14:13:24;;;;;;;;;;;29.50;43.60;;;;;;5097944;28;949;-45
2022/05/20 14:15:53;;;;;;;;;;;29.50;43.60;;;;;;5099206;28;980;-44
2022/05/20 14:18:22;;;;;;;;;;;29.60;43.70;;;;;;5098207;28;984;-44
2022/05/20 14:20:50;;;;;;;;;;;29.50;43.60;;;;;;5097971;28;999;-45
2022/05/20 14:23:18;;;;;;;;;;;29.50;43.70;;;;;;5096706;28;1004;-45
2022/05/20 14:25:47;;;;;;;;;;;29.50;43.70;;;;;;5096649;28;881;-45
2022/05/20 14:28:15;;;;;;;;;;;29.50;43.70;;;;;;5097328;28;1897;-45
2022/05/20 14:30:43;;;;;;;;;;;29.60;43.80;;;;;;5096814;28;947;-44
2022/05/20 14:33:16;;;;;;;;;;;29.50;43.70;;;;;;5097597;28;945;-45
2022/05/20 14:35:44;;;;;;;;;;;29.50;43.70;;;;;;5098187;28;1058;-47
2022/05/20 14:38:12;;;;;;;;;;;29.50;43.70;;;;;;5097496;28;1046;-44
2022/05/20 14:40:40;;;;;;;;;;;29.60;43.80;;;;;;5096359;28;995;-44
2022/05/20 14:43:08;;;;;;;;;;;29.50;43.70;;;;;;5096013;28;1031;-44
2022/05/20 14:45:36;;;;;;;;;;;29.50;43.80;;;;;;5095806;28;957;-45
2022/05/20 14:48:06;;;;;;;;;;;29.60;43.80;;;;;;5096934;28;1961;-44
2022/05/20 14:50:34;;;;;;;;;;;29.50;43.80;;;;;;5094471;28;992;-44
2022/05/20 14:53:03;;;;;;;;;;;29.50;43.80;;;;;;5094607;28;1060;-45
2022/05/20 14:55:31;;;;;;;;;;;29.50;43.80;;;;;;5094059;28;938;-44
2022/05/20 14:58:02;;;;;;;;;;;29.50;43.80;;;;;;5096979;28;1015;-43
2022/05/20 15:00:30;;;;;;;;;;;29.50;43.90;;;;;;5098392;28;1286;-44
2022/05/20 15:02:57;;;;;;;;;;;29.50;43.90;;;;;;5097118;28;1020;-44
2022/05/20 15:05:25;;;;;;;;;;;29.60;44.00;;;;;;5095967;28;1004;-44
2022/05/20 15:07:59;;;;;;;;;;;29.50;43.80;;;;;;5096881;28;1917;-42
2022/05/20 15:10:26;;;;;;;;;;;29.60;43.90;;;;;;5096777;28;1089;-45
2022/05/20 15:12:53;;;;;;;;;;;29.50;43.80;;;;;;5097016;28;944;-47
2022/05/20 15:15:20;;;;;;;;;;;29.50;43.90;;;;;;5096360;28;995;-47
2022/05/20 15:18:00;;;;;;;;;;;29.50;44.10;;;;;;5095511;28;1306;-44
2022/05/20 15:20:28;;;;;;;;;;;29.50;44.20;;;;;;5096645;28;1043;-43
2022/05/20 15:22:57;;;;;;;;;;;29.50;44.20;;;;;;5096887;28;917;-42
2022/05/20 15:25:24;;;;;;;;;;;29.50;44.10;;;;;;5093719;28;994;-44
2022/05/20 15:27:50;;;;;;;;;;;29.60;44.00;;;;;;5094811;28;1979;-45
2022/05/20 15:30:17;;;;;;;;;;;29.60;44.20;;;;;;5093666;28;998;-44
2022/05/20 15:35:28;;;;;;;;;;;29.50;44.10;;;;;;5094938;28;903;-47
2022/05/20 15:37:59;;;;;;;;;;;29.60;43.90;;;;;;5094702;28;925;-45